Terminal Aerodrome Forecast
Issued by NWS

Home | Current Version | Previous Version | Text Only | Print | Product List | Glossary On
Versions: 1 2 3 4 5 6 7 8 9 10 11 12 13 14
018
FTUS41 KCAR 230538
TAFPQI
TAF
KPQI 230538Z 2306/2406 00000KT P6SM SCT004
     FM231000 VRB03KT 5SM BR SCT005 BKN015
     FM231300 17007KT P6SM BKN015
     FM231800 17008KT P6SM BKN007
     FM232000 18008KT P6SM BKN015
     FM240000 21009KT P6SM -RA BKN015 WS020/23040KT
     FM240200 23009KT P6SM BKN015=

USA.gov is the U.S. government's official web portal to all federal, state and local government web resources and services.